sensor_id;sensor_type;location;lat;lon;timestamp;P1;durP1;ratioP1;P2;durP2;ratioP2
26303;SDS011;57113;48.680;8.890;2023-04-23T00:01:55;4.43;;;1.98;;
26303;SDS011;57113;48.680;8.890;2023-04-23T00:04:26;2.17;;;1.67;;
26303;SDS011;57113;48.680;8.890;2023-04-23T00:06:52;3.35;;;1.70;;
26303;SDS011;57113;48.680;8.890;2023-04-23T00:09:19;3.45;;;1.67;;
26303;SDS011;57113;48.680;8.890;2023-04-23T00:11:47;4.50;;;2.22;;
26303;SDS011;57113;48.680;8.890;2023-04-23T00:14:13;3.22;;;1.88;;
26303;SDS011;57113;48.680;8.890;2023-04-23T00:16:40;2.83;;;2.00;;
26303;SDS011;57113;48.680;8.890;2023-04-23T00:19:06;3.53;;;1.80;;
26303;SDS011;57113;48.680;8.890;2023-04-23T00:21:31;2.97;;;1.70;;
26303;SDS011;57113;48.680;8.890;2023-04-23T00:23:57;3.17;;;1.90;;
26303;SDS011;57113;48.680;8.890;2023-04-23T00:26:23;3.95;;;2.05;;
26303;SDS011;57113;48.680;8.890;2023-04-23T00:28:49;4.22;;;1.67;;
26303;SDS011;57113;48.680;8.890;2023-04-23T00:31:14;4.63;;;2.00;;
26303;SDS011;57113;48.680;8.890;2023-04-23T00:33:40;3.40;;;1.92;;
26303;SDS011;57113;48.680;8.890;2023-04-23T00:36:06;4.68;;;2.00;;
26303;SDS011;57113;48.680;8.890;2023-04-23T00:38:32;2.22;;;1.90;;
26303;SDS011;57113;48.680;8.890;2023-04-23T00:40:57;3.72;;;2.03;;
26303;SDS011;57113;48.680;8.890;2023-04-23T00:43:23;3.38;;;1.90;;
26303;SDS011;57113;48.680;8.890;2023-04-23T00:45:49;2.28;;;1.63;;
26303;SDS011;57113;48.680;8.890;2023-04-23T00:48:15;4.22;;;2.00;;
26303;SDS011;57113;48.680;8.890;2023-04-23T00:50:41;2.75;;;1.65;;
26303;SDS011;57113;48.680;8.890;2023-04-23T00:53:07;2.92;;;1.85;;
26303;SDS011;57113;48.680;8.890;2023-04-23T00:55:32;3.08;;;1.83;;
26303;SDS011;57113;48.680;8.890;2023-04-23T00:57:58;3.05;;;1.90;;
26303;SDS011;57113;48.680;8.890;2023-04-23T01:00:24;2.50;;;1.60;;
26303;SDS011;57113;48.680;8.890;2023-04-23T01:02:51;3.10;;;1.60;;
26303;SDS011;57113;48.680;8.890;2023-04-23T01:05:17;2.67;;;1.70;;
26303;SDS011;57113;48.680;8.890;2023-04-23T01:07:45;3.50;;;1.60;;
26303;SDS011;57113;48.680;8.890;2023-04-23T01:10:11;4.13;;;1.75;;
26303;SDS011;57113;48.680;8.890;2023-04-23T01:12:36;4.45;;;1.90;;
26303;SDS011;57113;48.680;8.890;2023-04-23T01:15:02;3.90;;;1.80;;
26303;SDS011;57113;48.680;8.890;2023-04-23T01:17:29;4.53;;;2.00;;
26303;SDS011;57113;48.680;8.890;2023-04-23T01:19:56;2.45;;;1.88;;
26303;SDS011;57113;48.680;8.890;2023-04-23T01:22:22;7.90;;;2.40;;
26303;SDS011;57113;48.680;8.890;2023-04-23T01:24:48;3.60;;;1.75;;
26303;SDS011;57113;48.680;8.890;2023-04-23T01:27:14;2.50;;;1.52;;
26303;SDS011;57113;48.680;8.890;2023-04-23T01:29:40;2.90;;;1.50;;
26303;SDS011;57113;48.680;8.890;2023-04-23T01:32:07;4.07;;;1.80;;
26303;SDS011;57113;48.680;8.890;2023-04-23T01:34:32;5.70;;;1.92;;
26303;SDS011;57113;48.680;8.890;2023-04-23T01:36:59;3.33;;;1.80;;
26303;SDS011;57113;48.680;8.890;2023-04-23T01:39:27;3.75;;;1.88;;
26303;SDS011;57113;48.680;8.890;2023-04-23T01:41:53;4.25;;;1.80;;
26303;SDS011;57113;48.680;8.890;2023-04-23T01:44:18;3.50;;;1.70;;
26303;SDS011;57113;48.680;8.890;2023-04-23T01:46:44;2.15;;;1.50;;
26303;SDS011;57113;48.680;8.890;2023-04-23T01:49:10;2.95;;;1.65;;
26303;SDS011;57113;48.680;8.890;2023-04-23T01:51:37;2.67;;;1.70;;
26303;SDS011;57113;48.680;8.890;2023-04-23T01:54:02;2.45;;;1.65;;
26303;SDS011;57113;48.680;8.890;2023-04-23T01:56:28;4.25;;;1.73;;
26303;SDS011;57113;48.680;8.890;2023-04-23T01:58:54;3.38;;;1.60;;
26303;SDS011;57113;48.680;8.890;2023-04-23T02:01:20;2.33;;;1.75;;
26303;SDS011;57113;48.680;8.890;2023-04-23T02:03:47;2.58;;;1.60;;
26303;SDS011;57113;48.680;8.890;2023-04-23T02:06:14;4.05;;;1.88;;
26303;SDS011;57113;48.680;8.890;2023-04-23T02:08:40;2.10;;;1.58;;
26303;SDS011;57113;48.680;8.890;2023-04-23T02:11:06;3.30;;;1.75;;
26303;SDS011;57113;48.680;8.890;2023-04-23T02:13:32;3.70;;;1.70;;
26303;SDS011;57113;48.680;8.890;2023-04-23T02:15:58;2.95;;;1.70;;
26303;SDS011;57113;48.680;8.890;2023-04-23T02:18:24;2.42;;;1.70;;
26303;SDS011;57113;48.680;8.890;2023-04-23T02:20:49;2.28;;;1.65;;
26303;SDS011;57113;48.680;8.890;2023-04-23T02:23:15;2.78;;;1.48;;
26303;SDS011;57113;48.680;8.890;2023-04-23T02:25:41;3.00;;;1.50;;
26303;SDS011;57113;48.680;8.890;2023-04-23T02:28:07;2.67;;;1.50;;
26303;SDS011;57113;48.680;8.890;2023-04-23T02:30:35;1.80;;;1.33;;
26303;SDS011;57113;48.680;8.890;2023-04-23T02:33:01;2.85;;;1.83;;
26303;SDS011;57113;48.680;8.890;2023-04-23T02:35:27;3.60;;;1.40;;
26303;SDS011;57113;48.680;8.890;2023-04-23T02:37:53;2.30;;;1.58;;
26303;SDS011;57113;48.680;8.890;2023-04-23T02:40:20;2.13;;;1.50;;
26303;SDS011;57113;48.680;8.890;2023-04-23T02:42:46;2.25;;;1.55;;
26303;SDS011;57113;48.680;8.890;2023-04-23T02:45:13;2.50;;;1.60;;
26303;SDS011;57113;48.680;8.890;2023-04-23T02:47:38;6.38;;;1.40;;
26303;SDS011;57113;48.680;8.890;2023-04-23T02:50:04;3.55;;;1.50;;
26303;SDS011;57113;48.680;8.890;2023-04-23T02:52:31;2.58;;;1.40;;
26303;SDS011;57113;48.680;8.890;2023-04-23T02:54:57;2.08;;;1.48;;
26303;SDS011;57113;48.680;8.890;2023-04-23T02:57:24;2.05;;;1.60;;
26303;SDS011;57113;48.680;8.890;2023-04-23T02:59:49;2.33;;;1.42;;
26303;SDS011;57113;48.680;8.890;2023-04-23T03:02:15;2.22;;;1.27;;
26303;SDS011;57113;48.680;8.890;2023-04-23T03:04:41;2.40;;;1.40;;
26303;SDS011;57113;48.680;8.890;2023-04-23T03:07:06;1.45;;;1.30;;
26303;SDS011;57113;48.680;8.890;2023-04-23T03:09:32;1.50;;;1.23;;
26303;SDS011;57113;48.680;8.890;2023-04-23T03:11:58;1.77;;;1.40;;
26303;SDS011;57113;48.680;8.890;2023-04-23T03:14:23;1.52;;;1.30;;
26303;SDS011;57113;48.680;8.890;2023-04-23T03:16:49;2.58;;;1.42;;
26303;SDS011;57113;48.680;8.890;2023-04-23T03:19:15;2.92;;;1.27;;
26303;SDS011;57113;48.680;8.890;2023-04-23T03:21:40;2.35;;;1.40;;
26303;SDS011;57113;48.680;8.890;2023-04-23T03:24:06;2.40;;;1.17;;
26303;SDS011;57113;48.680;8.890;2023-04-23T03:26:32;2.38;;;1.30;;
26303;SDS011;57113;48.680;8.890;2023-04-23T03:28:58;2.15;;;1.27;;
26303;SDS011;57113;48.680;8.890;2023-04-23T03:31:24;3.38;;;1.35;;
26303;SDS011;57113;48.680;8.890;2023-04-23T03:33:50;1.75;;;1.20;;
26303;SDS011;57113;48.680;8.890;2023-04-23T03:36:15;2.80;;;1.35;;
26303;SDS011;57113;48.680;8.890;2023-04-23T03:38:41;3.25;;;1.40;;
26303;SDS011;57113;48.680;8.890;2023-04-23T03:41:07;1.85;;;1.30;;
26303;SDS011;57113;48.680;8.890;2023-04-23T03:43:32;2.33;;;1.38;;
26303;SDS011;57113;48.680;8.890;2023-04-23T03:45:58;1.98;;;1.25;;
26303;SDS011;57113;48.680;8.890;2023-04-23T03:48:23;1.58;;;1.17;;
26303;SDS011;57113;48.680;8.890;2023-04-23T03:50:49;1.73;;;1.17;;
26303;SDS011;57113;48.680;8.890;2023-04-23T03:53:15;1.70;;;1.20;;
26303;SDS011;57113;48.680;8.890;2023-04-23T03:55:41;2.03;;;1.10;;
26303;SDS011;57113;48.680;8.890;2023-04-23T03:58:07;1.88;;;1.00;;
26303;SDS011;57113;48.680;8.890;2023-04-23T04:00:33;2.10;;;0.93;;
26303;SDS011;57113;48.680;8.890;2023-04-23T04:02:59;2.00;;;1.05;;
26303;SDS011;57113;48.680;8.890;2023-04-23T04:05:26;1.30;;;1.02;;
26303;SDS011;57113;48.680;8.890;2023-04-23T04:07:52;1.95;;;1.30;;
26303;SDS011;57113;48.680;8.890;2023-04-23T04:10:18;2.00;;;1.10;;
26303;SDS011;57113;48.680;8.890;2023-04-23T04:12:44;1.60;;;1.10;;
26303;SDS011;57113;48.680;8.890;2023-04-23T04:15:11;1.85;;;1.15;;
26303;SDS011;57113;48.680;8.890;2023-04-23T04:17:38;1.95;;;1.25;;
26303;SDS011;57113;48.680;8.890;2023-04-23T04:20:04;1.67;;;1.08;;
26303;SDS011;57113;48.680;8.890;2023-04-23T04:22:32;1.85;;;1.05;;
26303;SDS011;57113;48.680;8.890;2023-04-23T04:24:58;1.75;;;1.15;;
26303;SDS011;57113;48.680;8.890;2023-04-23T04:27:23;3.05;;;1.20;;
26303;SDS011;57113;48.680;8.890;2023-04-23T04:29:49;1.58;;;1.17;;
26303;SDS011;57113;48.680;8.890;2023-04-23T04:32:15;1.42;;;1.00;;
26303;SDS011;57113;48.680;8.890;2023-04-23T04:34:41;1.33;;;1.23;;
26303;SDS011;57113;48.680;8.890;2023-04-23T04:37:07;1.40;;;1.08;;
26303;SDS011;57113;48.680;8.890;2023-04-23T04:39:34;1.17;;;0.98;;
26303;SDS011;57113;48.680;8.890;2023-04-23T04:42:00;1.55;;;0.90;;
26303;SDS011;57113;48.680;8.890;2023-04-23T04:44:27;2.55;;;1.10;;
26303;SDS011;57113;48.680;8.890;2023-04-23T04:46:53;2.83;;;1.48;;
26303;SDS011;57113;48.680;8.890;2023-04-23T04:49:18;2.90;;;1.60;;
26303;SDS011;57113;48.680;8.890;2023-04-23T04:51:45;1.63;;;1.20;;
26303;SDS011;57113;48.680;8.890;2023-04-23T04:54:11;1.88;;;1.13;;
26303;SDS011;57113;48.680;8.890;2023-04-23T04:56:37;4.13;;;1.10;;
26303;SDS011;57113;48.680;8.890;2023-04-23T04:59:02;1.02;;;0.80;;
26303;SDS011;57113;48.680;8.890;2023-04-23T05:01:28;2.42;;;1.10;;
26303;SDS011;57113;48.680;8.890;2023-04-23T05:03:54;1.92;;;1.00;;
26303;SDS011;57113;48.680;8.890;2023-04-23T05:06:20;1.75;;;1.00;;
26303;SDS011;57113;48.680;8.890;2023-04-23T05:08:46;2.22;;;1.30;;
26303;SDS011;57113;48.680;8.890;2023-04-23T05:11:15;1.65;;;1.25;;
26303;SDS011;57113;48.680;8.890;2023-04-23T05:13:45;2.17;;;1.30;;
26303;SDS011;57113;48.680;8.890;2023-04-23T05:16:11;1.67;;;0.95;;
26303;SDS011;57113;48.680;8.890;2023-04-23T05:18:37;1.33;;;1.05;;
26303;SDS011;57113;48.680;8.890;2023-04-23T05:21:04;1.25;;;0.80;;
26303;SDS011;57113;48.680;8.890;2023-04-23T05:23:30;1.80;;;1.10;;
26303;SDS011;57113;48.680;8.890;2023-04-23T05:25:56;1.52;;;1.00;;
26303;SDS011;57113;48.680;8.890;2023-04-23T05:28:22;1.20;;;1.00;;
26303;SDS011;57113;48.680;8.890;2023-04-23T05:30:49;1.13;;;0.77;;
26303;SDS011;57113;48.680;8.890;2023-04-23T05:33:15;2.28;;;1.00;;
26303;SDS011;57113;48.680;8.890;2023-04-23T05:35:41;2.90;;;1.38;;
26303;SDS011;57113;48.680;8.890;2023-04-23T05:38:07;1.92;;;1.05;;
26303;SDS011;57113;48.680;8.890;2023-04-23T05:40:33;1.58;;;0.80;;
26303;SDS011;57113;48.680;8.890;2023-04-23T05:42:59;1.15;;;1.02;;
26303;SDS011;57113;48.680;8.890;2023-04-23T05:45:25;1.92;;;1.02;;
26303;SDS011;57113;48.680;8.890;2023-04-23T05:47:50;2.53;;;1.02;;
26303;SDS011;57113;48.680;8.890;2023-04-23T05:50:16;2.22;;;1.00;;
26303;SDS011;57113;48.680;8.890;2023-04-23T05:52:42;1.17;;;0.90;;
26303;SDS011;57113;48.680;8.890;2023-04-23T05:55:08;1.90;;;1.10;;
26303;SDS011;57113;48.680;8.890;2023-04-23T05:57:37;1.30;;;0.98;;
26303;SDS011;57113;48.680;8.890;2023-04-23T06:00:03;1.35;;;1.00;;
26303;SDS011;57113;48.680;8.890;2023-04-23T06:02:33;1.65;;;0.80;;
26303;SDS011;57113;48.680;8.890;2023-04-23T06:04:59;1.88;;;0.90;;
26303;SDS011;57113;48.680;8.890;2023-04-23T06:07:25;1.23;;;1.00;;
26303;SDS011;57113;48.680;8.890;2023-04-23T06:09:50;1.17;;;0.77;;
26303;SDS011;57113;48.680;8.890;2023-04-23T06:12:17;1.77;;;1.17;;
26303;SDS011;57113;48.680;8.890;2023-04-23T06:14:43;0.95;;;0.80;;
26303;SDS011;57113;48.680;8.890;2023-04-23T06:17:08;1.80;;;1.00;;
26303;SDS011;57113;48.680;8.890;2023-04-23T06:19:34;1.63;;;0.90;;
26303;SDS011;57113;48.680;8.890;2023-04-23T06:22:00;1.10;;;0.88;;
26303;SDS011;57113;48.680;8.890;2023-04-23T06:24:25;2.55;;;0.80;;
26303;SDS011;57113;48.680;8.890;2023-04-23T06:26:51;1.60;;;1.00;;
26303;SDS011;57113;48.680;8.890;2023-04-23T06:29:16;1.38;;;0.90;;
26303;SDS011;57113;48.680;8.890;2023-04-23T06:31:42;1.13;;;0.70;;
26303;SDS011;57113;48.680;8.890;2023-04-23T06:34:08;1.90;;;0.90;;
26303;SDS011;57113;48.680;8.890;2023-04-23T06:36:33;1.02;;;0.68;;
26303;SDS011;57113;48.680;8.890;2023-04-23T06:38:59;2.20;;;1.13;;
26303;SDS011;57113;48.680;8.890;2023-04-23T06:41:25;0.82;;;0.73;;
26303;SDS011;57113;48.680;8.890;2023-04-23T06:43:50;1.20;;;0.70;;
26303;SDS011;57113;48.680;8.890;2023-04-23T06:46:16;1.42;;;0.90;;
26303;SDS011;57113;48.680;8.890;2023-04-23T06:48:41;2.03;;;0.90;;
26303;SDS011;57113;48.680;8.890;2023-04-23T06:51:07;2.17;;;0.90;;
26303;SDS011;57113;48.680;8.890;2023-04-23T06:53:33;1.20;;;0.75;;
26303;SDS011;57113;48.680;8.890;2023-04-23T06:55:58;1.60;;;0.80;;
26303;SDS011;57113;48.680;8.890;2023-04-23T06:58:24;1.33;;;0.95;;
26303;SDS011;57113;48.680;8.890;2023-04-23T07:00:55;1.08;;;0.70;;
26303;SDS011;57113;48.680;8.890;2023-04-23T07:03:24;1.73;;;0.88;;
26303;SDS011;57113;48.680;8.890;2023-04-23T07:05:51;1.05;;;0.93;;
26303;SDS011;57113;48.680;8.890;2023-04-23T07:08:17;1.05;;;0.80;;
26303;SDS011;57113;48.680;8.890;2023-04-23T07:10:45;0.85;;;0.75;;
26303;SDS011;57113;48.680;8.890;2023-04-23T07:13:10;1.33;;;0.70;;
26303;SDS011;57113;48.680;8.890;2023-04-23T07:15:36;0.80;;;0.50;;
26303;SDS011;57113;48.680;8.890;2023-04-23T07:18:02;1.67;;;1.00;;
26303;SDS011;57113;48.680;8.890;2023-04-23T07:20:27;1.45;;;0.93;;
26303;SDS011;57113;48.680;8.890;2023-04-23T07:22:53;1.00;;;0.80;;
26303;SDS011;57113;48.680;8.890;2023-04-23T07:25:19;1.25;;;0.82;;
26303;SDS011;57113;48.680;8.890;2023-04-23T07:27:46;1.63;;;0.75;;
26303;SDS011;57113;48.680;8.890;2023-04-23T07:30:12;0.70;;;0.70;;
26303;SDS011;57113;48.680;8.890;2023-04-23T07:32:38;0.80;;;0.68;;
26303;SDS011;57113;48.680;8.890;2023-04-23T07:35:04;1.13;;;0.70;;
26303;SDS011;57113;48.680;8.890;2023-04-23T07:37:31;1.83;;;0.80;;
26303;SDS011;57113;48.680;8.890;2023-04-23T07:39:56;1.02;;;0.80;;
26303;SDS011;57113;48.680;8.890;2023-04-23T07:42:22;0.88;;;0.60;;
26303;SDS011;57113;48.680;8.890;2023-04-23T07:44:47;2.70;;;0.80;;
26303;SDS011;57113;48.680;8.890;2023-04-23T07:47:13;0.98;;;0.75;;
26303;SDS011;57113;48.680;8.890;2023-04-23T07:49:39;0.85;;;0.70;;
26303;SDS011;57113;48.680;8.890;2023-04-23T07:52:04;0.88;;;0.52;;
26303;SDS011;57113;48.680;8.890;2023-04-23T07:54:30;1.00;;;0.63;;
26303;SDS011;57113;48.680;8.890;2023-04-23T07:56:56;0.90;;;0.80;;
26303;SDS011;57113;48.680;8.890;2023-04-23T07:59:21;3.33;;;0.70;;
26303;SDS011;57113;48.680;8.890;2023-04-23T08:01:47;1.00;;;0.60;;
26303;SDS011;57113;48.680;8.890;2023-04-23T08:04:13;0.80;;;0.68;;
26303;SDS011;57113;48.680;8.890;2023-04-23T08:06:39;1.23;;;0.70;;
26303;SDS011;57113;48.680;8.890;2023-04-23T08:09:05;0.93;;;0.73;;
26303;SDS011;57113;48.680;8.890;2023-04-23T08:11:31;0.77;;;0.70;;
26303;SDS011;57113;48.680;8.890;2023-04-23T08:13:57;1.52;;;0.80;;
26303;SDS011;57113;48.680;8.890;2023-04-23T08:16:24;1.33;;;0.70;;
26303;SDS011;57113;48.680;8.890;2023-04-23T08:18:50;0.95;;;0.82;;
26303;SDS011;57113;48.680;8.890;2023-04-23T08:21:15;0.57;;;0.50;;
26303;SDS011;57113;48.680;8.890;2023-04-23T08:23:41;0.60;;;0.50;;
26303;SDS011;57113;48.680;8.890;2023-04-23T08:26:07;0.75;;;0.70;;
26303;SDS011;57113;48.680;8.890;2023-04-23T08:28:32;1.02;;;0.60;;
26303;SDS011;57113;48.680;8.890;2023-04-23T08:30:58;1.13;;;0.80;;
26303;SDS011;57113;48.680;8.890;2023-04-23T08:33:25;0.60;;;0.57;;
26303;SDS011;57113;48.680;8.890;2023-04-23T08:35:50;0.80;;;0.70;;
26303;SDS011;57113;48.680;8.890;2023-04-23T08:38:16;0.93;;;0.77;;
26303;SDS011;57113;48.680;8.890;2023-04-23T08:40:42;1.05;;;0.80;;
26303;SDS011;57113;48.680;8.890;2023-04-23T08:43:12;1.27;;;0.93;;
26303;SDS011;57113;48.680;8.890;2023-04-23T08:45:43;2.00;;;0.85;;
26303;SDS011;57113;48.680;8.890;2023-04-23T08:48:11;1.02;;;0.70;;
26303;SDS011;57113;48.680;8.890;2023-04-23T08:50:39;1.25;;;0.73;;
26303;SDS011;57113;48.680;8.890;2023-04-23T08:53:08;1.13;;;0.70;;
26303;SDS011;57113;48.680;8.890;2023-04-23T08:55:34;0.70;;;0.70;;
26303;SDS011;57113;48.680;8.890;2023-04-23T08:58:00;1.27;;;0.70;;
26303;SDS011;57113;48.680;8.890;2023-04-23T09:00:28;1.13;;;0.80;;
26303;SDS011;57113;48.680;8.890;2023-04-23T09:02:54;0.93;;;0.70;;
26303;SDS011;57113;48.680;8.890;2023-04-23T09:05:20;0.77;;;0.75;;
26303;SDS011;57113;48.680;8.890;2023-04-23T09:07:46;1.55;;;0.70;;
26303;SDS011;57113;48.680;8.890;2023-04-23T09:10:12;1.35;;;0.80;;
26303;SDS011;57113;48.680;8.890;2023-04-23T09:12:39;1.38;;;0.80;;
26303;SDS011;57113;48.680;8.890;2023-04-23T09:15:06;3.72;;;1.10;;
26303;SDS011;57113;48.680;8.890;2023-04-23T09:17:41;1.00;;;0.70;;
26303;SDS011;57113;48.680;8.890;2023-04-23T09:20:08;1.42;;;0.80;;
26303;SDS011;57113;48.680;8.890;2023-04-23T09:22:42;1.33;;;0.85;;
26303;SDS011;57113;48.680;8.890;2023-04-23T09:25:18;1.73;;;0.82;;
26303;SDS011;57113;48.680;8.890;2023-04-23T09:27:45;1.42;;;0.80;;
26303;SDS011;57113;48.680;8.890;2023-04-23T09:30:12;2.28;;;0.77;;
26303;SDS011;57113;48.680;8.890;2023-04-23T09:32:39;1.83;;;0.90;;
26303;SDS011;57113;48.680;8.890;2023-04-23T09:35:07;0.85;;;0.70;;
26303;SDS011;57113;48.680;8.890;2023-04-23T09:37:34;1.23;;;0.70;;
26303;SDS011;57113;48.680;8.890;2023-04-23T09:40:01;1.83;;;0.90;;
26303;SDS011;57113;48.680;8.890;2023-04-23T09:42:29;1.42;;;0.90;;
26303;SDS011;57113;48.680;8.890;2023-04-23T09:44:58;1.13;;;0.85;;
26303;SDS011;57113;48.680;8.890;2023-04-23T09:47:37;0.90;;;0.73;;
26303;SDS011;57113;48.680;8.890;2023-04-23T09:50:05;1.33;;;0.80;;
26303;SDS011;57113;48.680;8.890;2023-04-23T09:52:31;2.03;;;0.90;;
26303;SDS011;57113;48.680;8.890;2023-04-23T09:55:00;1.58;;;1.10;;
26303;SDS011;57113;48.680;8.890;2023-04-23T09:57:26;0.70;;;0.70;;
26303;SDS011;57113;48.680;8.890;2023-04-23T09:59:52;1.00;;;0.80;;
26303;SDS011;57113;48.680;8.890;2023-04-23T10:02:25;1.30;;;0.90;;
26303;SDS011;57113;48.680;8.890;2023-04-23T10:04:53;1.50;;;0.77;;
26303;SDS011;57113;48.680;8.890;2023-04-23T10:07:19;2.03;;;0.93;;
26303;SDS011;57113;48.680;8.890;2023-04-23T10:09:45;1.17;;;0.80;;
26303;SDS011;57113;48.680;8.890;2023-04-23T10:12:11;1.50;;;0.95;;
26303;SDS011;57113;48.680;8.890;2023-04-23T10:14:38;1.08;;;0.75;;
26303;SDS011;57113;48.680;8.890;2023-04-23T10:17:05;0.60;;;0.60;;
26303;SDS011;57113;48.680;8.890;2023-04-23T10:19:31;1.30;;;0.90;;
26303;SDS011;57113;48.680;8.890;2023-04-23T10:21:58;2.30;;;0.80;;
26303;SDS011;57113;48.680;8.890;2023-04-23T10:24:28;0.88;;;0.80;;
26303;SDS011;57113;48.680;8.890;2023-04-23T10:27:01;1.08;;;0.85;;
26303;SDS011;57113;48.680;8.890;2023-04-23T10:29:29;1.20;;;0.80;;
26303;SDS011;57113;48.680;8.890;2023-04-23T10:31:57;0.95;;;0.80;;
26303;SDS011;57113;48.680;8.890;2023-04-23T10:34:24;1.30;;;1.00;;
26303;SDS011;57113;48.680;8.890;2023-04-23T10:36:51;1.17;;;0.70;;
26303;SDS011;57113;48.680;8.890;2023-04-23T10:39:19;2.35;;;0.85;;
26303;SDS011;57113;48.680;8.890;2023-04-23T10:41:45;1.08;;;0.80;;
26303;SDS011;57113;48.680;8.890;2023-04-23T10:44:12;0.60;;;0.60;;
26303;SDS011;57113;48.680;8.890;2023-04-23T10:46:48;1.30;;;0.80;;
26303;SDS011;57113;48.680;8.890;2023-04-23T10:49:16;1.25;;;0.88;;
26303;SDS011;57113;48.680;8.890;2023-04-23T10:51:45;0.88;;;0.75;;
26303;SDS011;57113;48.680;8.890;2023-04-23T10:54:15;0.82;;;0.70;;
26303;SDS011;57113;48.680;8.890;2023-04-23T10:56:43;0.80;;;0.68;;
26303;SDS011;57113;48.680;8.890;2023-04-23T10:59:21;1.23;;;0.90;;
26303;SDS011;57113;48.680;8.890;2023-04-23T11:01:47;0.90;;;0.70;;
26303;SDS011;57113;48.680;8.890;2023-04-23T11:04:24;1.05;;;0.70;;
26303;SDS011;57113;48.680;8.890;2023-04-23T11:06:53;0.88;;;0.80;;
26303;SDS011;57113;48.680;8.890;2023-04-23T11:09:36;0.70;;;0.70;;
26303;SDS011;57113;48.680;8.890;2023-04-23T11:12:09;0.95;;;0.80;;
26303;SDS011;57113;48.680;8.890;2023-04-23T11:17:05;1.70;;;0.65;;
26303;SDS011;57113;48.680;8.890;2023-04-23T11:19:35;2.08;;;0.85;;
26303;SDS011;57113;48.680;8.890;2023-04-23T11:27:00;2.42;;;1.05;;
26303;SDS011;57113;48.680;8.890;2023-04-23T11:29:30;1.05;;;0.77;;
26303;SDS011;57113;48.680;8.890;2023-04-23T11:31:55;0.93;;;0.70;;
26303;SDS011;57113;48.680;8.890;2023-04-23T11:34:21;1.48;;;0.90;;
26303;SDS011;57113;48.680;8.890;2023-04-23T11:36:49;1.10;;;0.80;;
26303;SDS011;57113;48.680;8.890;2023-04-23T11:39:17;1.42;;;0.90;;
26303;SDS011;57113;48.680;8.890;2023-04-23T11:41:45;1.25;;;0.80;;
26303;SDS011;57113;48.680;8.890;2023-04-23T11:44:11;1.20;;;0.98;;
26303;SDS011;57113;48.680;8.890;2023-04-23T11:46:37;1.63;;;0.93;;
26303;SDS011;57113;48.680;8.890;2023-04-23T11:49:03;1.65;;;1.00;;
26303;SDS011;57113;48.680;8.890;2023-04-23T11:51:30;1.30;;;0.80;;
26303;SDS011;57113;48.680;8.890;2023-04-23T11:54:01;1.10;;;0.80;;
26303;SDS011;57113;48.680;8.890;2023-04-23T11:56:30;2.13;;;0.90;;
26303;SDS011;57113;48.680;8.890;2023-04-23T11:59:00;0.90;;;0.80;;
26303;SDS011;57113;48.680;8.890;2023-04-23T12:01:50;1.13;;;0.68;;
26303;SDS011;57113;48.680;8.890;2023-04-23T12:04:19;1.50;;;0.82;;
26303;SDS011;57113;48.680;8.890;2023-04-23T12:06:46;0.88;;;0.70;;
26303;SDS011;57113;48.680;8.890;2023-04-23T12:09:13;1.13;;;0.80;;
26303;SDS011;57113;48.680;8.890;2023-04-23T12:11:40;1.27;;;0.90;;
26303;SDS011;57113;48.680;8.890;2023-04-23T12:14:07;1.35;;;0.90;;
26303;SDS011;57113;48.680;8.890;2023-04-23T12:16:43;0.73;;;0.60;;
26303;SDS011;57113;48.680;8.890;2023-04-23T12:24:14;1.52;;;0.80;;
26303;SDS011;57113;48.680;8.890;2023-04-23T12:26:40;1.20;;;0.90;;
26303;SDS011;57113;48.680;8.890;2023-04-23T12:29:07;2.42;;;1.00;;
26303;SDS011;57113;48.680;8.890;2023-04-23T12:31:35;1.35;;;0.75;;
26303;SDS011;57113;48.680;8.890;2023-04-23T12:34:03;1.73;;;0.70;;
26303;SDS011;57113;48.680;8.890;2023-04-23T12:36:30;1.27;;;1.00;;
26303;SDS011;57113;48.680;8.890;2023-04-23T12:41:49;0.85;;;0.70;;
26303;SDS011;57113;48.680;8.890;2023-04-23T12:44:19;1.50;;;0.90;;
26303;SDS011;57113;48.680;8.890;2023-04-23T12:46:48;1.20;;;0.73;;
26303;SDS011;57113;48.680;8.890;2023-04-23T12:49:18;1.90;;;0.77;;
26303;SDS011;57113;48.680;8.890;2023-04-23T12:51:43;1.17;;;0.80;;
26303;SDS011;57113;48.680;8.890;2023-04-23T12:54:10;0.85;;;0.70;;
26303;SDS011;57113;48.680;8.890;2023-04-23T12:56:35;1.30;;;0.70;;
26303;SDS011;57113;48.680;8.890;2023-04-23T12:59:01;0.88;;;0.77;;
26303;SDS011;57113;48.680;8.890;2023-04-23T13:01:29;1.02;;;0.65;;
26303;SDS011;57113;48.680;8.890;2023-04-23T13:03:56;1.88;;;0.80;;
26303;SDS011;57113;48.680;8.890;2023-04-23T13:06:22;1.00;;;0.85;;
26303;SDS011;57113;48.680;8.890;2023-04-23T13:08:47;0.77;;;0.63;;
26303;SDS011;57113;48.680;8.890;2023-04-23T13:11:14;1.35;;;0.80;;
26303;SDS011;57113;48.680;8.890;2023-04-23T13:13:39;1.17;;;0.77;;
26303;SDS011;57113;48.680;8.890;2023-04-23T13:16:05;1.40;;;0.80;;
26303;SDS011;57113;48.680;8.890;2023-04-23T13:18:31;0.82;;;0.60;;
26303;SDS011;57113;48.680;8.890;2023-04-23T13:20:56;1.20;;;0.73;;
26303;SDS011;57113;48.680;8.890;2023-04-23T13:23:22;0.73;;;0.70;;
26303;SDS011;57113;48.680;8.890;2023-04-23T13:25:47;1.15;;;0.70;;
26303;SDS011;57113;48.680;8.890;2023-04-23T13:28:13;2.30;;;0.82;;
26303;SDS011;57113;48.680;8.890;2023-04-23T13:30:39;2.75;;;0.80;;
26303;SDS011;57113;48.680;8.890;2023-04-23T13:33:04;0.75;;;0.65;;
26303;SDS011;57113;48.680;8.890;2023-04-23T13:35:30;1.42;;;0.90;;
26303;SDS011;57113;48.680;8.890;2023-04-23T13:37:55;0.98;;;0.70;;
26303;SDS011;57113;48.680;8.890;2023-04-23T13:40:22;1.63;;;0.70;;
26303;SDS011;57113;48.680;8.890;2023-04-23T13:42:48;3.47;;;0.85;;
26303;SDS011;57113;48.680;8.890;2023-04-23T13:45:15;1.42;;;0.80;;
26303;SDS011;57113;48.680;8.890;2023-04-23T13:47:40;1.50;;;0.63;;
26303;SDS011;57113;48.680;8.890;2023-04-23T13:50:06;0.93;;;0.70;;
26303;SDS011;57113;48.680;8.890;2023-04-23T13:52:34;0.98;;;0.75;;
26303;SDS011;57113;48.680;8.890;2023-04-23T13:55:01;3.75;;;0.90;;
26303;SDS011;57113;48.680;8.890;2023-04-23T13:57:27;1.95;;;0.80;;
26303;SDS011;57113;48.680;8.890;2023-04-23T13:59:53;1.63;;;0.68;;
26303;SDS011;57113;48.680;8.890;2023-04-23T14:02:20;1.58;;;0.70;;
26303;SDS011;57113;48.680;8.890;2023-04-23T14:04:46;1.73;;;0.80;;
26303;SDS011;57113;48.680;8.890;2023-04-23T14:07:11;3.05;;;0.70;;
26303;SDS011;57113;48.680;8.890;2023-04-23T14:09:37;0.93;;;0.70;;
26303;SDS011;57113;48.680;8.890;2023-04-23T14:12:03;0.88;;;0.70;;
26303;SDS011;57113;48.680;8.890;2023-04-23T14:14:29;1.20;;;0.90;;
26303;SDS011;57113;48.680;8.890;2023-04-23T14:16:55;1.08;;;0.70;;
26303;SDS011;57113;48.680;8.890;2023-04-23T14:19:20;1.60;;;0.52;;
26303;SDS011;57113;48.680;8.890;2023-04-23T14:21:46;0.93;;;0.70;;
26303;SDS011;57113;48.680;8.890;2023-04-23T14:24:21;1.10;;;0.60;;
26303;SDS011;57113;48.680;8.890;2023-04-23T14:26:51;2.22;;;0.73;;
26303;SDS011;57113;48.680;8.890;2023-04-23T14:31:48;1.30;;;0.70;;
26303;SDS011;57113;48.680;8.890;2023-04-23T14:34:14;2.55;;;0.82;;
26303;SDS011;57113;48.680;8.890;2023-04-23T14:36:40;2.17;;;0.70;;
26303;SDS011;57113;48.680;8.890;2023-04-23T14:39:05;1.30;;;0.90;;
26303;SDS011;57113;48.680;8.890;2023-04-23T14:41:31;0.95;;;0.52;;
26303;SDS011;57113;48.680;8.890;2023-04-23T14:44:00;1.63;;;0.75;;
26303;SDS011;57113;48.680;8.890;2023-04-23T14:46:26;1.00;;;0.80;;
26303;SDS011;57113;48.680;8.890;2023-04-23T14:48:52;1.85;;;0.77;;
26303;SDS011;57113;48.680;8.890;2023-04-23T14:51:18;2.38;;;0.77;;
26303;SDS011;57113;48.680;8.890;2023-04-23T14:53:44;1.77;;;0.75;;
26303;SDS011;57113;48.680;8.890;2023-04-23T14:56:09;1.75;;;0.90;;
26303;SDS011;57113;48.680;8.890;2023-04-23T14:58:35;3.33;;;0.77;;
26303;SDS011;57113;48.680;8.890;2023-04-23T15:01:01;0.98;;;0.75;;
26303;SDS011;57113;48.680;8.890;2023-04-23T15:03:26;1.67;;;1.05;;